Terminal Aerodrome Forecast
Issued by NWS Charleston, WV

Home | Current Version | Previous Version | Text Only | Print | Product List | Glossary On
Versions: 1 2 3 4 5 6 7 8 9 10 11 12 13 14 15 16 17 18 19 20 21
000
FTUS41 KRLX 131100
TAFCRW
TAF
KCRW 131135Z 1312/1412 00000KT P6SM BKN110 BKN190
     FM131400 22007KT P6SM BKN090
     FM131800 23011KT P6SM BKN040
     FM132000 22009G15KT P6SM VCTS BKN040CB
     FM140100 20005KT P6SM VCTS BKN040CB
     FM140500 20004KT 5SM SHRA BR VCTS OVC025CB
     FM140800 22004KT 3SM +TSRA BR OVC015CB=

USA.gov is the U.S. government's official web portal to all federal, state and local government web resources and services.